Time;durP1;ratioP1;P1;durP2;ratioP2;P2;SDS_P1;SDS_P2;PMS_P1;PMS_P2;Temp;Humidity;BMP_temperature;BMP_pressure;BME280_temperature;BME280_humidity;BME280_pressure;Samples;Min_cycle;Max_cycle;Signal;HPM_P1;HPM_P2
2024/01/16 00:00:58;;;;;;;10.63;2.60;;;-0.20;99.90;;;;;;5120671;27;20497;-70
2024/01/16 00:03:24;;;;;;;10.80;2.33;;;-0.20;99.90;;;;;;5115197;27;21136;-70
2024/01/16 00:05:50;;;;;;;11.20;2.60;;;-0.20;99.90;;;;;;5119409;27;20043;-70
2024/01/16 00:08:15;;;;;;;14.57;3.50;;;-0.20;99.90;;;;;;5116354;27;20977;-70
2024/01/16 00:10:41;;;;;;;15.67;2.63;;;-0.20;99.90;;;;;;5126864;27;20050;-70
2024/01/16 00:13:07;;;;;;;18.50;2.83;;;-0.20;99.90;;;;;;5127135;27;20072;-70
2024/01/16 00:15:32;;;;;;;13.27;2.67;;;-0.20;99.90;;;;;;5118444;27;20043;-71
2024/01/16 00:17:58;;;;;;;13.20;2.93;;;-0.30;99.90;;;;;;5105726;27;20041;-70
2024/01/16 00:20:25;;;;;;;16.50;2.70;;;-0.30;99.90;;;;;;5108660;27;20448;-70
2024/01/16 00:22:51;;;;;;;11.80;2.63;;;-0.30;99.90;;;;;;5126617;27;20042;-71
2024/01/16 00:25:19;;;;;;;10.07;2.40;;;-0.30;99.90;;;;;;5124874;27;20069;-70
2024/01/16 00:27:46;;;;;;;14.03;2.70;;;-0.30;99.90;;;;;;5113375;27;20049;-70
2024/01/16 00:30:12;;;;;;;10.03;2.50;;;-0.30;99.90;;;;;;5112151;27;20043;-71
2024/01/16 00:32:39;;;;;;;14.77;2.73;;;-0.30;99.90;;;;;;5123482;27;20046;-70
2024/01/16 00:35:05;;;;;;;13.57;2.33;;;-0.30;99.90;;;;;;5118132;27;20474;-71
2024/01/16 00:37:30;;;;;;;12.80;2.50;;;-0.30;99.90;;;;;;5123084;27;20055;-70
2024/01/16 00:39:56;;;;;;;14.33;2.40;;;-0.30;99.90;;;;;;5125308;27;20125;-71
2024/01/16 00:42:22;;;;;;;7.63;1.90;;;-0.30;99.90;;;;;;5124894;27;20096;-70
2024/01/16 00:44:48;;;;;;;9.93;1.90;;;-0.40;99.90;;;;;;5120956;27;20041;-70
2024/01/16 00:47:14;;;;;;;10.10;1.93;;;-0.30;99.90;;;;;;5117502;27;20043;-70
2024/01/16 00:49:39;;;;;;;8.10;2.00;;;-0.30;99.90;;;;;;5116151;27;20107;-71
2024/01/16 00:52:08;;;;;;;11.53;2.50;;;-0.30;99.90;;;;;;5115287;27;20047;-71
2024/01/16 00:54:34;;;;;;;8.87;1.60;;;-0.30;99.90;;;;;;5119926;27;20111;-70
2024/01/16 00:57:00;;;;;;;10.20;2.20;;;-0.30;99.90;;;;;;5118096;27;20043;-71
2024/01/16 00:59:26;;;;;;;10.00;2.30;;;-0.30;99.90;;;;;;5105131;27;20038;-70
2024/01/16 01:01:52;;;;;;;7.27;1.80;;;-0.30;99.90;;;;;;5111155;27;20438;-71
2024/01/16 01:04:18;;;;;;;11.13;1.53;;;-0.30;99.90;;;;;;5114047;27;20039;-70
2024/01/16 01:06:43;;;;;;;9.17;1.70;;;-0.30;99.90;;;;;;5117028;27;20047;-71
2024/01/16 01:09:11;;;;;;;9.80;1.50;;;-0.30;99.90;;;;;;5113603;27;20051;-71
2024/01/16 01:11:38;;;;;;;7.47;1.60;;;-0.40;99.90;;;;;;5123771;27;20070;-71
2024/01/16 01:14:04;;;;;;;16.13;2.00;;;-0.40;99.90;;;;;;5100047;27;20043;-71
2024/01/16 01:16:30;;;;;;;8.63;1.33;;;-0.40;99.90;;;;;;5120545;27;20058;-71
2024/01/16 01:18:58;;;;;;;9.40;1.77;;;-0.40;99.90;;;;;;5108549;27;20070;-71
2024/01/16 01:21:24;;;;;;;5.90;1.07;;;-0.30;99.90;;;;;;5113441;27;20042;-71
2024/01/16 01:23:50;;;;;;;6.27;1.30;;;-0.30;99.90;;;;;;5113060;27;20031;-70
2024/01/16 01:26:18;;;;;;;7.77;1.83;;;-0.20;99.90;;;;;;5113865;27;20608;-70
2024/01/16 01:28:43;;;;;;;6.07;1.23;;;-0.10;99.90;;;;;;5120989;27;20034;-69
2024/01/16 01:31:10;;;;;;;8.23;1.47;;;-0.10;99.90;;;;;;5116257;27;20434;-70
2024/01/16 01:33:36;;;;;;;8.13;1.30;;;-0.10;99.90;;;;;;5124669;27;20420;-70
2024/01/16 01:36:02;;;;;;;7.00;1.40;;;-0.10;99.90;;;;;;5119593;27;20043;-70
2024/01/16 01:38:28;;;;;;;10.10;1.87;;;0.00;99.90;;;;;;5105583;27;20031;-69
2024/01/16 01:40:54;;;;;;;4.97;1.17;;;0.00;99.90;;;;;;5108431;27;20035;-69
2024/01/16 01:43:26;;;;;;;7.03;1.40;;;-0.10;99.90;;;;;;5119547;27;20050;-69
2024/01/16 01:46:19;;;;;;;8.30;1.50;;;0.00;99.90;;;;;;5114497;27;20028;-71
2024/01/16 01:48:47;;;;;;;5.63;1.20;;;-0.10;99.90;;;;;;5122336;27;20049;-71
2024/01/16 01:51:16;;;;;;;6.00;1.20;;;-0.10;99.90;;;;;;5110297;27;20131;-71
2024/01/16 01:53:43;;;;;;;7.13;1.50;;;-0.30;99.90;;;;;;5135689;27;20051;-71
2024/01/16 01:56:14;;;;;;;7.40;1.10;;;-0.30;99.90;;;;;;5118197;27;20039;-71
2024/01/16 01:58:43;;;;;;;5.68;1.42;;;-0.40;99.90;;;;;;5117805;27;20050;-71
2024/01/16 02:01:10;;;;;;;6.00;1.10;;;-0.40;99.90;;;;;;5120538;27;20628;-71
2024/01/16 02:03:41;;;;;;;5.67;1.27;;;-0.50;99.90;;;;;;5112805;27;20051;-71
2024/01/16 02:06:07;;;;;;;7.67;1.70;;;-0.50;99.90;;;;;;5117393;27;20146;-71
2024/01/16 02:08:33;;;;;;;10.57;1.80;;;-0.60;99.90;;;;;;5105765;27;20032;-71
2024/01/16 02:10:59;;;;;;;4.90;1.10;;;-0.60;99.90;;;;;;5120554;27;20511;-71
2024/01/16 02:13:24;;;;;;;5.00;0.97;;;-0.60;99.90;;;;;;5116422;27;20404;-71
2024/01/16 02:15:51;;;;;;;8.20;1.30;;;-0.60;99.90;;;;;;5113505;27;20070;-70
2024/01/16 02:18:17;;;;;;;8.57;1.27;;;-0.70;99.90;;;;;;5108207;27;20133;-71
2024/01/16 02:20:44;;;;;;;8.37;1.43;;;-0.70;99.90;;;;;;5116058;27;20088;-71
2024/01/16 02:23:12;;;;;;;9.47;1.67;;;-0.60;99.90;;;;;;5117036;27;20130;-71
2024/01/16 02:25:39;;;;;;;7.97;1.40;;;-0.50;99.90;;;;;;5120475;27;20492;-70
2024/01/16 02:28:05;;;;;;;12.67;1.67;;;-0.50;99.90;;;;;;5097877;27;20095;-71
2024/01/16 02:30:31;;;;;;;9.03;2.03;;;-0.50;99.90;;;;;;5138396;27;20195;-71
2024/01/16 02:32:56;;;;;;;8.87;1.67;;;-0.40;99.90;;;;;;5104888;27;20126;-71
2024/01/16 02:35:23;;;;;;;7.30;1.10;;;-0.30;99.90;;;;;;5123991;27;20523;-71
2024/01/16 02:37:48;;;;;;;8.10;1.63;;;-0.30;99.90;;;;;;5096508;27;20484;-71
2024/01/16 02:40:15;;;;;;;8.23;1.30;;;-0.20;99.90;;;;;;5120177;27;20036;-71
2024/01/16 02:42:40;;;;;;;8.13;1.50;;;-0.20;99.90;;;;;;5105463;27;20039;-70
2024/01/16 02:45:06;;;;;;;8.93;1.43;;;-0.20;99.90;;;;;;5123081;27;20678;-70
2024/01/16 02:47:33;;;;;;;10.30;1.30;;;-0.20;99.90;;;;;;5119001;27;20509;-71
2024/01/16 02:49:59;;;;;;;10.83;1.70;;;-0.20;99.90;;;;;;5114567;27;20043;-71
2024/01/16 02:52:28;;;;;;;9.97;1.53;;;-0.20;99.90;;;;;;5124628;27;20377;-70
2024/01/16 02:54:57;;;;;;;11.17;1.53;;;-0.30;99.90;;;;;;5120828;27;20042;-70
2024/01/16 02:57:23;;;;;;;7.60;1.93;;;-0.30;99.90;;;;;;5110208;27;20035;-71
2024/01/16 02:59:49;;;;;;;10.47;1.27;;;-0.30;99.90;;;;;;5121688;27;20061;-80
2024/01/16 03:02:14;;;;;;;8.70;1.43;;;-0.30;99.90;;;;;;5127235;27;20058;-79
2024/01/16 03:04:41;;;;;;;7.93;1.70;;;-0.30;99.90;;;;;;5108356;27;20043;-80
2024/01/16 03:07:07;;;;;;;8.27;1.47;;;-0.30;99.90;;;;;;5128100;27;20047;-79
2024/01/16 03:09:33;;;;;;;6.20;1.27;;;-0.40;99.90;;;;;;5126691;27;20420;-79
2024/01/16 03:11:59;;;;;;;10.80;1.90;;;-0.40;99.90;;;;;;5123931;27;20042;-71
2024/01/16 03:14:26;;;;;;;8.30;1.43;;;-0.40;99.90;;;;;;5116331;27;20043;-71
2024/01/16 03:16:51;;;;;;;8.20;1.40;;;-0.40;99.90;;;;;;5117225;27;20042;-71
2024/01/16 03:19:17;;;;;;;6.03;1.30;;;-0.40;99.90;;;;;;5114991;27;20393;-70
2024/01/16 03:21:43;;;;;;;8.53;1.60;;;-0.50;99.90;;;;;;5124056;27;20092;-70
2024/01/16 03:24:10;;;;;;;8.47;1.90;;;-0.60;99.90;;;;;;5119242;27;20437;-70
2024/01/16 03:26:38;;;;;;;9.40;1.80;;;-0.60;99.90;;;;;;5117777;27;20043;-70
2024/01/16 03:29:04;;;;;;;9.30;1.60;;;-0.70;99.90;;;;;;5125541;27;20039;-71
2024/01/16 03:31:30;;;;;;;8.30;1.60;;;-0.60;99.90;;;;;;5118603;27;20043;-70
2024/01/16 03:33:59;;;;;;;8.40;1.63;;;-0.60;99.90;;;;;;5116432;27;20050;-70
2024/01/16 03:36:24;;;;;;;7.87;1.30;;;-0.60;99.90;;;;;;5105160;27;20038;-71
2024/01/16 03:38:50;;;;;;;9.10;1.50;;;-0.70;99.90;;;;;;5121769;27;20392;-71
2024/01/16 03:41:16;;;;;;;10.83;1.80;;;-0.70;99.90;;;;;;5122382;27;20053;-70
2024/01/16 03:43:42;;;;;;;6.63;1.13;;;-0.70;99.90;;;;;;5116824;27;20518;-70
2024/01/16 03:46:10;;;;;;;10.37;1.83;;;-0.70;99.90;;;;;;5108027;27;20043;-70
2024/01/16 03:48:35;;;;;;;8.37;1.70;;;-0.70;99.90;;;;;;5116283;27;20475;-71
2024/01/16 03:51:02;;;;;;;10.50;1.60;;;-0.70;99.90;;;;;;5109627;27;20168;-70
2024/01/16 03:53:28;;;;;;;9.37;1.67;;;-0.70;99.90;;;;;;5122284;27;20067;-70
2024/01/16 03:55:53;;;;;;;9.43;1.80;;;-0.70;99.90;;;;;;5119193;27;20119;-70
2024/01/16 03:58:19;;;;;;;7.87;1.47;;;-0.70;99.90;;;;;;5123515;27;20215;-71
2024/01/16 04:00:46;;;;;;;9.90;1.60;;;-0.60;99.90;;;;;;5118716;27;20619;-80
2024/01/16 04:03:13;;;;;;;8.47;1.80;;;-0.60;99.90;;;;;;5116325;27;20633;-80
2024/01/16 04:05:39;;;;;;;10.40;1.90;;;-0.60;99.90;;;;;;5120160;27;20055;-79
2024/01/16 04:08:05;;;;;;;7.27;1.63;;;-0.70;99.90;;;;;;5117122;27;20444;-80
2024/01/16 04:10:30;;;;;;;7.30;1.60;;;-0.50;99.90;;;;;;5123162;27;20039;-79
2024/01/16 04:12:59;;;;;;;11.10;1.87;;;-0.60;99.90;;;;;;5119801;27;20540;-79
2024/01/16 04:15:28;;;;;;;12.43;2.23;;;-0.50;99.90;;;;;;5109093;27;20042;-80
2024/01/16 04:17:54;;;;;;;9.03;1.57;;;-0.50;99.90;;;;;;5125939;27;20030;-79
2024/01/16 04:20:20;;;;;;;9.17;1.87;;;-0.50;99.90;;;;;;5116004;27;20123;-79
2024/01/16 04:22:46;;;;;;;8.47;1.30;;;-0.50;99.90;;;;;;5112806;27;20078;-79
2024/01/16 04:25:12;;;;;;;7.87;1.33;;;-0.40;99.90;;;;;;5121591;27;20092;-79
2024/01/16 04:27:38;;;;;;;8.40;1.50;;;-0.40;99.90;;;;;;5105712;27;20225;-70
2024/01/16 04:30:05;;;;;;;11.43;1.87;;;-0.40;99.90;;;;;;5117572;27;20088;-71
2024/01/16 04:32:30;;;;;;;7.40;1.63;;;-0.30;99.90;;;;;;5119639;27;20110;-71
2024/01/16 04:34:56;;;;;;;10.43;1.80;;;-0.30;99.90;;;;;;5116029;27;20513;-70
2024/01/16 04:37:22;;;;;;;10.13;1.67;;;-0.30;99.90;;;;;;5125217;27;20047;-71
2024/01/16 04:39:47;;;;;;;10.53;1.97;;;-0.30;99.90;;;;;;5120974;27;20539;-71
2024/01/16 04:42:13;;;;;;;8.50;1.37;;;-0.30;99.90;;;;;;5127998;27;20046;-71
2024/01/16 04:44:39;;;;;;;11.63;1.90;;;-0.20;99.90;;;;;;5121230;27;20133;-69
2024/01/16 04:47:05;;;;;;;16.07;2.60;;;-0.20;99.90;;;;;;5126752;27;20046;-70
2024/01/16 04:49:31;;;;;;;12.07;1.90;;;-0.20;99.90;;;;;;5119950;27;20046;-73
2024/01/16 04:51:56;;;;;;;9.57;1.50;;;-0.20;99.90;;;;;;5119081;27;20362;-69
2024/01/16 04:54:22;;;;;;;7.63;1.83;;;-0.20;99.90;;;;;;5125469;27;20489;-69
2024/01/16 04:56:48;;;;;;;9.77;2.40;;;-0.20;99.90;;;;;;5112293;27;20629;-69
2024/01/16 04:59:13;;;;;;;14.80;2.07;;;-0.20;99.90;;;;;;5126427;27;20070;-69
2024/01/16 05:01:39;;;;;;;12.93;2.10;;;-0.20;99.90;;;;;;5120996;27;20500;-70
2024/01/16 05:04:07;;;;;;;15.73;2.50;;;-0.20;99.90;;;;;;5126534;27;20042;-70
2024/01/16 05:06:34;;;;;;;12.43;1.80;;;-0.20;99.90;;;;;;5106635;27;20122;-70
2024/01/16 05:09:00;;;;;;;8.43;2.03;;;-0.20;99.90;;;;;;5119255;27;20049;-70
2024/01/16 05:11:26;;;;;;;14.60;2.63;;;-0.20;99.90;;;;;;5119144;27;20042;-69
2024/01/16 05:13:57;;;;;;;12.57;2.40;;;-0.20;99.90;;;;;;5118919;27;20050;-70
2024/01/16 05:16:27;;;;;;;12.30;2.07;;;-0.20;99.90;;;;;;5122800;27;20046;-70
2024/01/16 05:18:53;;;;;;;14.15;2.00;;;-0.20;99.90;;;;;;5105193;27;20034;-70
2024/01/16 05:21:20;;;;;;;9.27;1.90;;;-0.20;99.90;;;;;;5140817;27;20601;-70
2024/01/16 05:23:46;;;;;;;6.30;1.70;;;-0.20;99.90;;;;;;5136052;27;20043;-70
2024/01/16 05:26:12;;;;;;;12.83;2.10;;;-0.20;99.90;;;;;;5131659;27;20091;-70
2024/01/16 05:28:39;;;;;;;14.90;1.83;;;-0.20;99.90;;;;;;5126385;27;20120;-70
2024/01/16 05:31:04;;;;;;;11.20;2.03;;;-0.20;99.90;;;;;;5145497;27;20043;-70
2024/01/16 05:33:30;;;;;;;10.90;1.70;;;-0.20;99.90;;;;;;5134200;27;20049;-69
2024/01/16 05:35:57;;;;;;;10.87;1.90;;;-0.20;99.90;;;;;;5129116;27;20405;-70
2024/01/16 05:38:23;;;;;;;12.37;2.00;;;-0.20;99.90;;;;;;5113170;27;20034;-70
2024/01/16 05:40:48;;;;;;;10.27;1.80;;;-0.20;99.90;;;;;;5132750;27;20042;-70
2024/01/16 05:43:14;;;;;;;8.90;2.03;;;-0.20;99.90;;;;;;5123455;27;20033;-70
2024/01/16 05:45:40;;;;;;;10.80;2.00;;;-0.20;99.90;;;;;;5129608;27;20047;-71
2024/01/16 05:48:09;;;;;;;9.90;2.27;;;-0.20;99.90;;;;;;5133858;27;20482;-70
2024/01/16 05:50:36;;;;;;;11.20;2.00;;;-0.20;99.90;;;;;;5146818;27;20046;-70
2024/01/16 05:53:02;;;;;;;9.87;2.00;;;-0.20;99.90;;;;;;5127200;27;20038;-70
2024/01/16 05:55:31;;;;;;;11.93;2.23;;;-0.20;99.90;;;;;;5120622;27;20042;-79
2024/01/16 05:57:59;;;;;;;11.00;2.17;;;-0.20;99.90;;;;;;5126377;27;20034;-78
2024/01/16 06:00:25;;;;;;;10.27;2.03;;;-0.10;99.90;;;;;;5106877;27;20050;-78
2024/01/16 06:02:51;;;;;;;8.07;2.00;;;-0.30;99.90;;;;;;5120980;27;20039;-78
2024/01/16 06:05:16;;;;;;;5.53;1.50;;;-0.20;99.90;;;;;;5124748;27;20038;-78
2024/01/16 06:07:42;;;;;;;5.40;1.37;;;-0.20;99.90;;;;;;5112302;27;20039;-70
2024/01/16 06:10:09;;;;;;;12.80;2.13;;;-0.20;99.90;;;;;;5107033;27;20379;-70
2024/01/16 06:12:35;;;;;;;10.23;1.87;;;-0.20;99.90;;;;;;5114535;27;20047;-70
2024/01/16 06:15:01;;;;;;;11.30;2.00;;;-0.10;99.90;;;;;;5108156;27;20542;-70
2024/01/16 06:17:26;;;;;;;9.43;1.70;;;-0.10;99.90;;;;;;5121323;27;20039;-70
2024/01/16 06:19:52;;;;;;;10.03;1.87;;;-0.10;99.90;;;;;;5120426;27;20034;-70
2024/01/16 06:22:18;;;;;;;6.87;1.70;;;-0.10;99.90;;;;;;5119664;27;20043;-78
2024/01/16 06:24:44;;;;;;;8.60;1.80;;;-0.20;99.90;;;;;;5117756;27;20041;-70
2024/01/16 06:27:09;;;;;;;9.17;1.83;;;-0.10;99.90;;;;;;5116820;27;20043;-70
2024/01/16 06:29:37;;;;;;;8.50;1.63;;;-0.10;99.90;;;;;;5123276;27;20058;-70
2024/01/16 06:32:04;;;;;;;9.67;2.30;;;-0.10;99.90;;;;;;5138849;27;20066;-70
2024/01/16 06:34:29;;;;;;;9.10;2.10;;;-0.10;99.90;;;;;;5114960;27;20047;-70
2024/01/16 06:36:56;;;;;;;9.63;1.90;;;0.00;99.90;;;;;;5110221;27;20111;-70
2024/01/16 06:39:21;;;;;;;9.60;2.13;;;-0.10;99.90;;;;;;5116911;27;20043;-70
2024/01/16 06:41:47;;;;;;;9.00;1.63;;;0.00;99.90;;;;;;5117414;27;20035;-70
2024/01/16 06:44:13;;;;;;;10.93;2.27;;;-0.10;99.90;;;;;;5123516;27;20470;-70
2024/01/16 06:46:39;;;;;;;6.00;2.07;;;0.00;99.90;;;;;;5123845;27;20047;-70
2024/01/16 06:49:04;;;;;;;8.70;1.83;;;0.00;99.90;;;;;;5114541;27;20034;-70
2024/01/16 06:51:30;;;;;;;8.47;2.07;;;0.00;99.90;;;;;;5123101;27;20050;-70
2024/01/16 06:53:56;;;;;;;8.37;2.53;;;0.00;99.90;;;;;;5104493;27;20050;-71
2024/01/16 06:56:22;;;;;;;8.87;2.30;;;0.10;99.90;;;;;;5128164;27;20049;-70
2024/01/16 06:58:47;;;;;;;9.23;2.37;;;0.10;99.90;;;;;;5124935;27;20081;-70
2024/01/16 07:01:14;;;;;;;7.67;2.37;;;0.00;99.90;;;;;;5116840;27;20050;-70
2024/01/16 07:03:39;;;;;;;9.00;2.57;;;0.00;99.90;;;;;;5118747;27;20047;-70
2024/01/16 07:06:05;;;;;;;13.70;3.43;;;0.00;99.90;;;;;;5123941;27;20042;-71
2024/01/16 07:08:31;;;;;;;11.00;3.17;;;0.00;99.90;;;;;;5117961;27;20058;-70
2024/01/16 07:10:57;;;;;;;9.53;3.20;;;0.10;99.90;;;;;;5129849;27;20031;-70
2024/01/16 07:13:23;;;;;;;10.10;3.57;;;0.00;99.90;;;;;;5118171;27;20049;-70
2024/01/16 07:15:48;;;;;;;12.67;3.57;;;0.10;99.90;;;;;;5123055;27;20069;-70
2024/01/16 07:18:14;;;;;;;13.20;3.93;;;0.00;99.90;;;;;;5123001;27;20061;-71
2024/01/16 07:20:40;;;;;;;11.20;3.93;;;0.10;99.90;;;;;;5101568;27;20126;-71
2024/01/16 07:23:06;;;;;;;10.87;3.67;;;0.10;99.90;;;;;;5125373;27;20035;-71
2024/01/16 07:25:32;;;;;;;10.03;4.40;;;0.10;99.90;;;;;;5111164;27;20131;-71
2024/01/16 07:27:58;;;;;;;10.63;4.17;;;0.10;99.90;;;;;;5118505;27;20046;-71
2024/01/16 07:30:24;;;;;;;10.57;4.13;;;0.10;99.90;;;;;;5121126;27;20077;-71
2024/01/16 07:32:51;;;;;;;12.53;4.33;;;0.10;99.90;;;;;;5119032;27;20418;-71
2024/01/16 07:35:17;;;;;;;11.90;4.57;;;0.10;99.90;;;;;;5111074;27;20050;-71
2024/01/16 07:37:42;;;;;;;10.70;4.60;;;0.10;99.90;;;;;;5120655;27;20497;-71
2024/01/16 07:40:09;;;;;;;11.03;5.33;;;0.10;99.90;;;;;;5121806;27;20741;-71
2024/01/16 07:42:35;;;;;;;13.67;6.17;;;0.10;99.90;;;;;;5122693;27;20057;-71
2024/01/16 07:45:04;;;;;;;14.20;5.97;;;0.10;99.90;;;;;;5110889;27;20067;-71
2024/01/16 07:47:33;;;;;;;13.93;7.57;;;0.10;99.90;;;;;;5111433;27;20137;-71
2024/01/16 07:49:59;;;;;;;14.50;6.93;;;0.10;99.90;;;;;;5121436;27;20662;-71
2024/01/16 07:52:27;;;;;;;13.57;7.10;;;0.10;99.90;;;;;;5117959;27;20054;-71
2024/01/16 07:54:55;;;;;;;17.87;7.43;;;0.10;99.90;;;;;;5137006;27;20035;-71
2024/01/16 07:57:21;;;;;;;14.00;7.73;;;0.20;99.90;;;;;;5112516;27;20046;-71
2024/01/16 07:59:47;;;;;;;15.07;8.70;;;0.20;99.90;;;;;;5116587;27;20035;-72
2024/01/16 08:02:12;;;;;;;16.83;9.10;;;0.20;99.90;;;;;;5138531;27;20546;-71
2024/01/16 08:04:38;;;;;;;14.10;8.87;;;0.20;99.90;;;;;;5114756;27;20042;-71
2024/01/16 08:07:04;;;;;;;15.83;8.83;;;0.10;99.90;;;;;;5115310;27;20358;-71
2024/01/16 08:09:30;;;;;;;15.77;9.87;;;0.20;99.90;;;;;;5131283;27;20051;-71
2024/01/16 08:11:56;;;;;;;15.50;10.07;;;0.20;99.90;;;;;;5113496;27;20520;-71
2024/01/16 08:14:22;;;;;;;19.00;11.00;;;0.20;99.90;;;;;;5128699;27;20043;-71
2024/01/16 08:16:47;;;;;;;13.90;9.83;;;0.20;99.90;;;;;;5118573;27;20057;-70
2024/01/16 08:19:14;;;;;;;18.23;10.37;;;0.20;99.90;;;;;;5120812;27;20078;-71
2024/01/16 08:21:40;;;;;;;15.00;9.30;;;0.20;99.90;;;;;;5126387;27;20035;-71
2024/01/16 08:24:06;;;;;;;14.83;9.70;;;0.20;99.90;;;;;;5126071;27;20039;-71
2024/01/16 08:26:31;;;;;;;15.03;9.80;;;0.20;99.90;;;;;;5109912;27;20508;-71
2024/01/16 08:28:58;;;;;;;15.87;9.80;;;0.20;99.90;;;;;;5122335;27;20901;-71
2024/01/16 08:31:24;;;;;;;17.10;10.23;;;0.20;99.90;;;;;;5109036;27;20047;-71
2024/01/16 08:33:49;;;;;;;17.47;10.93;;;0.30;99.90;;;;;;5114410;27;20566;-71
2024/01/16 08:36:15;;;;;;;16.07;10.50;;;0.30;99.90;;;;;;5137042;27;20376;-71
2024/01/16 08:38:41;;;;;;;20.60;11.47;;;0.30;99.90;;;;;;5110795;27;20984;-71
2024/01/16 08:41:07;;;;;;;22.83;13.47;;;0.40;99.90;;;;;;5116814;27;20526;-71
2024/01/16 08:43:33;;;;;;;24.67;12.97;;;0.40;99.90;;;;;;5134488;27;20039;-71
2024/01/16 08:45:59;;;;;;;21.00;12.90;;;0.50;99.90;;;;;;5129243;27;20030;-71
2024/01/16 08:48:28;;;;;;;18.93;13.90;;;0.50;99.90;;;;;;5113920;27;21692;-75
2024/01/16 08:50:54;;;;;;;22.93;12.63;;;0.60;99.90;;;;;;5102876;27;20026;-76
2024/01/16 08:53:22;;;;;;;20.60;11.97;;;0.70;99.90;;;;;;5124620;27;20114;-76
2024/01/16 08:55:48;;;;;;;16.70;10.47;;;0.60;99.90;;;;;;5119598;27;20081;-76
2024/01/16 08:58:15;;;;;;;17.47;10.87;;;0.70;99.90;;;;;;5124432;27;20078;-75
2024/01/16 09:00:40;;;;;;;15.03;9.73;;;0.80;99.90;;;;;;5117043;27;20308;-76
2024/01/16 09:03:07;;;;;;;15.40;10.13;;;0.80;99.90;;;;;;5114757;27;20043;-76
2024/01/16 09:05:38;;;;;;;14.80;9.10;;;0.80;99.90;;;;;;5113180;27;20043;-76
2024/01/16 09:08:07;;;;;;;14.85;9.27;;;0.80;99.90;;;;;;5121957;27;20042;-72
2024/01/16 09:10:33;;;;;;;17.90;9.50;;;0.90;99.90;;;;;;5101287;27;20050;-72
2024/01/16 09:12:59;;;;;;;15.03;8.70;;;0.80;99.90;;;;;;5119674;27;20031;-72
2024/01/16 09:15:25;;;;;;;14.00;8.33;;;0.90;99.90;;;;;;5123845;27;20054;-72
2024/01/16 09:17:51;;;;;;;17.43;8.07;;;0.90;99.90;;;;;;5101600;27;20531;-72
2024/01/16 09:20:17;;;;;;;15.60;8.73;;;0.90;99.90;;;;;;5106187;27;20099;-72
2024/01/16 09:22:43;;;;;;;14.03;8.47;;;0.90;99.90;;;;;;5117067;27;20489;-72
2024/01/16 09:25:09;;;;;;;14.52;8.65;;;1.00;99.90;;;;;;5116311;27;20133;-72
2024/01/16 09:27:34;;;;;;;18.53;9.60;;;0.90;99.90;;;;;;5118831;27;20125;-72
2024/01/16 09:30:00;;;;;;;15.80;9.48;;;0.90;99.90;;;;;;5121563;27;20038;-72
2024/01/16 09:32:26;;;;;;;15.13;8.93;;;0.90;99.90;;;;;;5118514;27;20375;-72
2024/01/16 09:34:52;;;;;;;17.20;9.27;;;1.00;99.90;;;;;;5108551;27;20039;-72
2024/01/16 09:37:18;;;;;;;13.40;9.73;;;1.00;99.90;;;;;;5111811;27;20050;-72
2024/01/16 09:39:44;;;;;;;17.15;11.00;;;1.00;99.90;;;;;;5124923;27;20042;-72
2024/01/16 09:42:10;;;;;;;20.43;13.10;;;1.00;99.90;;;;;;5116314;27;20170;-71
2024/01/16 09:44:36;;;;;;;20.43;12.97;;;1.00;99.90;;;;;;5112834;27;20070;-72
2024/01/16 09:47:05;;;;;;;22.20;14.57;;;1.00;99.90;;;;;;5112846;27;20504;-72
2024/01/16 09:49:30;;;;;;;22.33;14.98;;;1.00;99.90;;;;;;5110605;27;20066;-72
2024/01/16 09:51:59;;;;;;;23.30;15.17;;;1.00;99.90;;;;;;5112231;27;20536;-72
2024/01/16 09:54:27;;;;;;;21.17;15.10;;;1.10;99.90;;;;;;5107848;27;20053;-72
2024/01/16 09:56:58;;;;;;;24.02;15.10;;;1.10;99.90;;;;;;5115759;27;20043;-72
2024/01/16 09:59:26;;;;;;;21.47;14.60;;;1.10;99.90;;;;;;5115562;27;20447;-71
2024/01/16 10:01:54;;;;;;;21.13;15.13;;;1.10;99.90;;;;;;5119469;27;20046;-72
2024/01/16 10:04:19;;;;;;;23.27;15.18;;;1.10;99.90;;;;;;5121559;27;20126;-72
2024/01/16 10:06:48;;;;;;;21.20;15.52;;;1.10;99.90;;;;;;5114435;27;20617;-72
2024/01/16 10:09:15;;;;;;;21.60;15.30;;;1.10;99.90;;;;;;5142851;27;20043;-72
2024/01/16 10:11:45;;;;;;;21.07;14.97;;;1.10;99.90;;;;;;5111242;27;20035;-72
2024/01/16 10:14:11;;;;;;;21.30;14.30;;;1.10;99.90;;;;;;5118221;27;20027;-72
2024/01/16 10:17:02;;;;;;;19.33;15.23;;;1.10;99.90;;;;;;5101255;27;20497;-72
2024/01/16 10:19:29;;;;;;;21.00;14.80;;;1.10;99.90;;;;;;5099907;27;20598;-72
2024/01/16 10:22:06;;;;;;;21.80;15.15;;;1.10;99.90;;;;;;5121609;27;20026;-72
2024/01/16 10:24:35;;;;;;;21.13;15.65;;;1.20;99.90;;;;;;5113513;27;20050;-72
2024/01/16 10:27:04;;;;;;;19.75;14.95;;;1.10;99.90;;;;;;5118198;27;20047;-72
2024/01/16 10:29:33;;;;;;;17.70;14.33;;;1.30;99.90;;;;;;5117166;27;20386;-73
2024/01/16 10:31:59;;;;;;;16.77;12.55;;;1.20;99.90;;;;;;5112976;27;20095;-72
2024/01/16 10:34:26;;;;;;;17.60;12.55;;;1.20;99.90;;;;;;5119058;27;20078;-72
2024/01/16 10:36:58;;;;;;;14.32;10.63;;;1.20;99.90;;;;;;5115931;27;20073;-72
2024/01/16 10:39:24;;;;;;;12.33;9.37;;;1.30;99.90;;;;;;5137106;27;20046;-72
2024/01/16 10:42:00;;;;;;;12.93;8.40;;;1.30;99.90;;;;;;5120991;27;20155;-72
2024/01/16 10:44:27;;;;;;;11.25;8.05;;;1.30;99.90;;;;;;5114472;27;20075;-72
2024/01/16 10:47:11;;;;;;;12.73;6.53;;;1.40;99.90;;;;;;5123352;27;20107;-72
2024/01/16 10:49:37;;;;;;;11.68;6.40;;;1.40;99.90;;;;;;5105985;27;20035;-72
2024/01/16 10:52:09;;;;;;;12.73;6.38;;;1.40;99.90;;;;;;5120940;27;20058;-72
2024/01/16 10:54:37;;;;;;;10.02;5.45;;;1.40;99.90;;;;;;5121124;27;20049;-75
2024/01/16 10:57:04;;;;;;;11.07;4.35;;;1.40;99.90;;;;;;5116569;27;20314;-76
2024/01/16 11:00:04;;;;;;;8.45;4.05;;;1.30;99.90;;;;;;5119438;27;20054;-75
2024/01/16 11:02:43;;;;;;;7.88;3.90;;;1.30;99.90;;;;;;5105572;27;20054;-76
2024/01/16 11:05:11;;;;;;;8.45;3.65;;;1.30;99.90;;;;;;5112809;27;20075;-72
2024/01/16 11:07:37;;;;;;;7.15;3.03;;;1.30;99.90;;;;;;5093373;27;20039;-72
2024/01/16 11:10:03;;;;;;;8.17;2.83;;;1.30;99.90;;;;;;5092741;27;20089;-72
2024/01/16 11:12:33;;;;;;;8.70;2.50;;;1.30;99.90;;;;;;5100694;27;20517;-73
2024/01/16 11:15:07;;;;;;;8.25;2.17;;;1.40;99.90;;;;;;5117580;27;20125;-72
2024/01/16 11:17:36;;;;;;;8.25;2.80;;;1.40;99.90;;;;;;5119377;27;20058;-72
2024/01/16 11:20:09;;;;;;;10.27;2.77;;;1.30;99.90;;;;;;5124855;27;20038;-72
2024/01/16 11:22:41;;;;;;;6.82;1.95;;;1.30;99.90;;;;;;5110353;27;20142;-72
2024/01/16 11:25:18;;;;;;;9.77;2.50;;;1.40;99.90;;;;;;5131870;27;20493;-72
2024/01/16 11:27:50;;;;;;;8.88;2.38;;;1.40;99.90;;;;;;5119722;27;20031;-72
2024/01/16 11:30:31;;;;;;;8.18;2.28;;;1.50;99.90;;;;;;5120659;27;20051;-71
2024/01/16 11:32:56;;;;;;;;;;;1.40;99.90;;;;;;5119114;27;20346;-72
2024/01/16 11:35:33;;;;;;;7.97;2.60;;;1.40;99.90;;;;;;5117875;27;19919;-72
2024/01/16 11:38:20;;;;;;;8.07;2.33;;;1.30;99.90;;;;;;5121571;27;20042;-72
2024/01/16 11:40:47;;;;;;;6.72;1.98;;;1.30;99.90;;;;;;5118047;27;20490;-72
2024/01/16 11:43:32;;;;;;;10.77;2.60;;;1.30;99.90;;;;;;5108462;27;20038;-72
2024/01/16 11:45:58;;;;;;;9.30;2.60;;;1.30;99.90;;;;;;5108469;27;21494;-72
2024/01/16 11:48:25;;;;;;;8.43;2.40;;;1.30;99.90;;;;;;5126783;27;20129;-72
2024/01/16 11:50:52;;;;;;;12.38;3.30;;;1.30;99.90;;;;;;5101272;27;20707;-72
2024/01/16 11:53:33;;;;;;;7.97;2.67;;;1.30;99.90;;;;;;5119343;27;20490;-72
2024/01/16 11:56:30;;;;;;;12.27;3.13;;;1.30;99.90;;;;;;5108595;27;20489;-72
2024/01/16 11:59:05;;;;;;;10.48;3.67;;;1.20;99.90;;;;;;5110230;27;20042;-72
2024/01/16 12:01:32;;;;;;;9.50;3.33;;;1.20;99.90;;;;;;5109544;27;20046;-72
2024/01/16 12:04:07;;;;;;;13.32;4.30;;;1.30;99.90;;;;;;5127779;27;20047;-72
2024/01/16 12:06:40;;;;;;;8.27;4.50;;;1.30;99.90;;;;;;5108554;27;20420;-72
2024/01/16 12:09:17;;;;;;;11.85;4.88;;;1.30;99.90;;;;;;5121763;27;20039;-72
2024/01/16 12:11:56;;;;;;;12.32;5.65;;;1.30;99.90;;;;;;5117689;27;20035;-72
2024/01/16 12:14:22;;;;;;;15.67;5.90;;;1.30;99.90;;;;;;5121540;27;20047;-72
2024/01/16 12:16:48;;;;;;;13.02;6.40;;;1.30;99.90;;;;;;5118825;27;20039;-72
2024/01/16 12:19:14;;;;;;;10.32;6.25;;;1.30;99.90;;;;;;5123241;27;20112;-72
2024/01/16 12:21:42;;;;;;;11.32;6.93;;;1.40;99.90;;;;;;5119008;27;20111;-72
2024/01/16 12:24:08;;;;;;;10.33;6.87;;;1.40;99.90;;;;;;5121520;27;20046;-72
2024/01/16 12:26:33;;;;;;;12.73;6.90;;;1.30;99.90;;;;;;5126297;27;20043;-72
2024/01/16 12:28:59;;;;;;;13.82;8.10;;;1.30;99.90;;;;;;5119766;27;20050;-72
2024/01/16 12:31:26;;;;;;;14.53;8.73;;;1.30;99.90;;;;;;5121699;27;20041;-72
2024/01/16 12:33:52;;;;;;;12.20;8.00;;;1.20;99.90;;;;;;5122687;27;20031;-72
2024/01/16 12:36:18;;;;;;;16.70;8.98;;;1.30;99.90;;;;;;5117361;27;20411;-72
2024/01/16 12:38:44;;;;;;;15.70;8.10;;;1.20;99.90;;;;;;5116997;27;20661;-72
2024/01/16 12:41:11;;;;;;;15.35;8.27;;;1.20;99.90;;;;;;5106303;27;20144;-72
2024/01/16 12:43:37;;;;;;;14.35;7.93;;;1.20;99.90;;;;;;5118297;27;20128;-72
2024/01/16 12:46:03;;;;;;;17.67;10.13;;;1.20;99.90;;;;;;5112073;27;20070;-72